createdAt,value
2018-01-19T00:02:05.748Z,3.40
2018-01-19T00:04:33.182Z,3.40
2018-01-19T00:07:00.623Z,3.50
2018-01-19T00:09:28.838Z,3.50
2018-01-19T00:11:56.286Z,3.50
2018-01-19T00:14:23.734Z,3.50
2018-01-19T00:16:51.957Z,3.60
2018-01-19T00:19:19.409Z,3.60
2018-01-19T00:21:46.851Z,3.60
2018-01-19T00:24:15.065Z,3.60
2018-01-19T00:26:42.503Z,3.60
2018-01-19T00:29:10.011Z,3.60
2018-01-19T00:31:37.503Z,3.60
2018-01-19T00:34:04.984Z,3.70
2018-01-19T00:36:32.503Z,3.60
2018-01-19T00:38:59.930Z,3.60
2018-01-19T00:41:27.366Z,3.60
2018-01-19T00:43:55.560Z,3.70
2018-01-19T00:46:23.016Z,3.60
2018-01-19T00:48:50.457Z,3.70
2018-01-19T00:51:18.666Z,3.70
2018-01-19T00:53:46.098Z,3.60
2018-01-19T00:56:14.319Z,3.60
2018-01-19T00:58:41.779Z,3.60
2018-01-19T01:01:09.239Z,3.60
2018-01-19T01:03:36.679Z,3.60
2018-01-19T01:06:04.917Z,3.50
2018-01-19T01:08:32.358Z,3.50
2018-01-19T01:10:59.809Z,3.50
2018-01-19T01:13:27.275Z,3.50
2018-01-19T01:15:54.796Z,3.50
2018-01-19T01:18:22.254Z,3.50
2018-01-19T01:20:49.738Z,3.50
2018-01-19T01:23:18.046Z,3.50
2018-01-19T01:25:45.478Z,3.50
2018-01-19T01:28:13.728Z,3.50
2018-01-19T01:30:41.159Z,3.50
2018-01-19T01:33:08.618Z,3.60
2018-01-19T01:35:36.045Z,3.60
2018-01-19T01:38:04.278Z,3.60
2018-01-19T01:40:31.731Z,3.60
2018-01-19T01:42:59.191Z,3.60
2018-01-19T01:45:26.631Z,3.60
2018-01-19T01:47:54.078Z,3.60
2018-01-19T01:50:22.286Z,3.60
2018-01-19T01:52:49.744Z,3.60
2018-01-19T01:55:17.205Z,3.60
2018-01-19T01:57:44.656Z,3.60
2018-01-19T02:00:13.323Z,3.60
2018-01-19T02:02:41.926Z,3.50
2018-01-19T02:05:09.429Z,3.50
2018-01-19T02:07:37.621Z,3.50
2018-01-19T02:10:05.059Z,3.50
2018-01-19T02:12:32.523Z,3.50
2018-01-19T02:15:00.122Z,3.60
2018-01-19T02:17:27.619Z,3.60
2018-01-19T02:19:55.146Z,3.60
2018-01-19T02:22:22.600Z,3.60
2018-01-19T02:24:50.052Z,3.60
2018-01-19T02:27:17.477Z,3.50
2018-01-19T02:29:44.934Z,3.50
2018-01-19T02:32:13.165Z,3.60
2018-01-19T02:34:40.623Z,3.60
2018-01-19T02:37:08.097Z,3.60
2018-01-19T02:39:36.299Z,3.60
2018-01-19T02:42:03.743Z,3.60
2018-01-19T02:44:31.203Z,3.60
2018-01-19T02:46:58.662Z,3.50
2018-01-19T02:49:26.099Z,3.50
2018-01-19T02:51:53.557Z,3.50
2018-01-19T02:54:20.995Z,3.50
2018-01-19T02:56:49.233Z,3.40
2018-01-19T02:59:16.665Z,3.40
2018-01-19T03:01:44.148Z,3.40
2018-01-19T03:04:11.692Z,3.50
2018-01-19T03:06:39.156Z,3.50
2018-01-19T03:09:06.615Z,3.50
2018-01-19T03:11:34.074Z,3.50
2018-01-19T03:14:01.516Z,3.60
2018-01-19T03:16:29.755Z,3.60
2018-01-19T03:18:57.215Z,3.70
2018-01-19T03:21:24.693Z,3.70
2018-01-19T03:23:52.139Z,3.70
2018-01-19T03:26:19.598Z,3.70
2018-01-19T03:28:47.055Z,3.70
2018-01-19T03:31:14.505Z,3.70
2018-01-19T03:33:41.970Z,3.70
2018-01-19T03:36:09.419Z,3.70
2018-01-19T03:38:36.898Z,3.70
2018-01-19T03:41:04.375Z,3.70
2018-01-19T03:43:31.806Z,3.70
2018-01-19T03:45:59.245Z,3.70
2018-01-19T03:48:27.483Z,3.70
2018-01-19T03:50:54.929Z,3.80
2018-01-19T03:53:22.492Z,3.80
2018-01-19T03:55:49.929Z,3.70
2018-01-19T03:58:17.395Z,3.50
2018-01-19T04:00:44.834Z,3.50
2018-01-19T04:03:13.049Z,3.40
2018-01-19T04:05:40.511Z,3.40
2018-01-19T04:08:07.972Z,3.40
2018-01-19T04:10:35.415Z,3.40
2018-01-19T04:13:03.624Z,3.50
2018-01-19T04:15:31.071Z,3.50
2018-01-19T04:17:58.531Z,3.60
2018-01-19T04:20:25.962Z,3.60
2018-01-19T04:22:53.406Z,3.60
2018-01-19T04:25:20.841Z,3.60
2018-01-19T04:27:48.495Z,3.50
2018-01-19T04:30:15.956Z,3.40
2018-01-19T04:32:43.406Z,3.30
2018-01-19T04:35:10.864Z,3.30
2018-01-19T04:37:38.321Z,3.30
2018-01-19T04:40:06.568Z,3.40
2018-01-19T04:42:34.091Z,3.40
2018-01-19T04:45:01.556Z,3.40
2018-01-19T04:47:28.989Z,3.50
2018-01-19T04:49:57.199Z,3.60
2018-01-19T04:52:24.657Z,3.70
2018-01-19T04:54:52.091Z,3.70
2018-01-19T04:57:20.302Z,3.80
2018-01-19T04:59:47.742Z,3.80
2018-01-19T05:02:15.212Z,3.80
2018-01-19T05:04:42.669Z,3.80
2018-01-19T05:07:10.108Z,3.80
2018-01-19T05:09:37.566Z,3.80
2018-01-19T05:12:05.003Z,3.70
2018-01-19T05:14:32.468Z,3.70
2018-01-19T05:16:59.933Z,3.70
2018-01-19T05:19:27.439Z,3.80
2018-01-19T05:21:55.692Z,3.60
2018-01-19T05:24:23.184Z,3.70
2018-01-19T05:26:51.403Z,3.70
2018-01-19T05:29:18.913Z,3.60
2018-01-19T05:31:46.353Z,3.70
2018-01-19T05:34:13.809Z,3.60
2018-01-19T05:36:41.281Z,3.60
2018-01-19T05:39:08.730Z,3.70
2018-01-19T05:41:36.165Z,3.70
2018-01-19T05:44:03.630Z,3.70
2018-01-19T05:46:31.069Z,3.70
2018-01-19T05:48:58.515Z,3.70
2018-01-19T05:51:26.725Z,3.70
2018-01-19T05:53:54.186Z,3.80
2018-01-19T05:56:21.625Z,3.80
2018-01-19T05:58:49.846Z,3.80
2018-01-19T06:01:18.089Z,3.80
2018-01-19T06:03:46.293Z,3.90
2018-01-19T06:06:13.760Z,3.90
2018-01-19T06:08:41.214Z,3.90
2018-01-19T06:11:09.436Z,3.90
2018-01-19T06:13:36.933Z,3.90
2018-01-19T06:16:05.142Z,3.90
2018-01-19T06:18:32.622Z,3.90
2018-01-19T06:21:00.160Z,3.90
2018-01-19T06:23:27.618Z,3.90
2018-01-19T06:25:55.066Z,3.90
2018-01-19T06:28:23.280Z,3.80
2018-01-19T06:30:50.754Z,3.80
2018-01-19T06:33:18.198Z,3.90
2018-01-19T06:35:45.684Z,3.80
2018-01-19T06:38:13.140Z,3.80
2018-01-19T06:40:40.584Z,3.80
2018-01-19T06:43:08.055Z,3.80
2018-01-19T06:45:35.512Z,3.80
2018-01-19T06:48:02.983Z,3.80
2018-01-19T06:50:30.443Z,3.80
2018-01-19T06:52:57.912Z,3.80
2018-01-19T06:55:25.360Z,3.80
2018-01-19T06:57:52.845Z,3.80
2018-01-19T07:00:20.264Z,3.80
2018-01-19T07:02:48.851Z,3.70
2018-01-19T07:05:17.097Z,3.80
2018-01-19T07:07:44.529Z,3.70
2018-01-19T07:10:11.984Z,3.70
2018-01-19T07:12:39.444Z,3.70
2018-01-19T07:15:06.899Z,3.70
2018-01-19T07:17:34.349Z,3.70
2018-01-19T07:20:02.580Z,3.80
2018-01-19T07:22:30.107Z,3.70
2018-01-19T07:24:57.542Z,3.70
2018-01-19T07:27:25.772Z,3.70
2018-01-19T07:29:53.219Z,3.70
2018-01-19T07:32:20.675Z,3.70
2018-01-19T07:34:48.132Z,3.70
2018-01-19T07:37:15.568Z,3.80
2018-01-19T07:39:43.017Z,3.90
2018-01-19T07:42:10.449Z,3.90
2018-01-19T07:44:37.917Z,4.00
2018-01-19T07:47:05.347Z,4.00
2018-01-19T07:49:32.821Z,3.90
2018-01-19T07:52:00.267Z,4.00
2018-01-19T07:54:27.712Z,3.90
2018-01-19T07:56:55.937Z,3.90
2018-01-19T07:59:23.370Z,3.90
2018-01-19T08:01:50.830Z,4.00
2018-01-19T08:04:19.036Z,3.90
2018-01-19T08:06:46.490Z,3.90
2018-01-19T08:09:13.928Z,3.90
2018-01-19T08:11:42.248Z,3.90
2018-01-19T08:14:09.697Z,3.90
2018-01-19T08:16:37.147Z,4.00
2018-01-19T08:19:04.608Z,4.00
2018-01-19T08:21:32.064Z,4.00
2018-01-19T08:24:00.280Z,3.90
2018-01-19T08:26:27.732Z,3.90
2018-01-19T08:28:55.190Z,3.90
2018-01-19T08:31:22.686Z,4.00
2018-01-19T08:33:50.146Z,4.00
2018-01-19T08:36:17.624Z,4.00
2018-01-19T08:38:45.081Z,4.00
2018-01-19T08:41:12.553Z,4.00
2018-01-19T08:43:40.021Z,4.00
2018-01-19T08:46:07.634Z,4.00
2018-01-19T08:48:35.074Z,4.00
2018-01-19T08:51:03.284Z,4.00
2018-01-19T08:53:30.744Z,4.00
2018-01-19T08:55:58.201Z,4.10
2018-01-19T08:58:25.651Z,4.10
2018-01-19T09:00:53.159Z,4.20
2018-01-19T09:03:20.618Z,4.20
2018-01-19T09:05:48.072Z,4.20
2018-01-19T09:08:15.547Z,4.30
2018-01-19T09:10:42.995Z,4.30
2018-01-19T09:13:10.446Z,4.30
2018-01-19T09:15:38.022Z,4.20
2018-01-19T09:18:05.616Z,4.30
2018-01-19T09:20:33.049Z,4.30
2018-01-19T09:23:00.480Z,4.20
2018-01-19T09:25:27.938Z,4.20
2018-01-19T09:27:56.141Z,4.30
2018-01-19T09:30:23.586Z,4.30
2018-01-19T09:32:51.031Z,4.30
2018-01-19T09:35:19.386Z,4.30
2018-01-19T09:37:46.822Z,4.30
2018-01-19T09:40:14.277Z,4.30
2018-01-19T09:42:41.717Z,4.30
2018-01-19T09:45:09.161Z,4.30
2018-01-19T09:47:37.372Z,4.30
2018-01-19T09:50:04.844Z,4.30
2018-01-19T09:52:32.303Z,4.30
2018-01-19T09:54:59.765Z,4.30
2018-01-19T09:57:27.227Z,4.30
2018-01-19T09:59:54.671Z,4.30
2018-01-19T10:02:22.899Z,4.30
2018-01-19T10:04:50.371Z,4.30
2018-01-19T10:07:17.839Z,4.20
2018-01-19T10:09:45.367Z,4.30
2018-01-19T10:12:12.830Z,4.30
2018-01-19T10:14:40.296Z,4.30
2018-01-19T10:17:07.752Z,4.30
2018-01-19T10:19:35.219Z,4.30
2018-01-19T10:22:02.674Z,4.30
2018-01-19T10:24:30.138Z,4.20
2018-01-19T10:26:57.586Z,4.30
2018-01-19T10:29:25.045Z,4.30
2018-01-19T10:31:52.509Z,4.20
2018-01-19T10:34:19.986Z,4.20
2018-01-19T10:36:47.423Z,4.30
2018-01-19T10:39:15.648Z,4.50
2018-01-19T10:41:43.134Z,4.50
2018-01-19T10:44:10.586Z,4.60
2018-01-19T10:46:38.033Z,4.60
2018-01-19T10:49:05.498Z,4.60
2018-01-19T10:51:32.962Z,4.60
2018-01-19T10:54:00.440Z,4.60
2018-01-19T10:56:27.875Z,4.50
2018-01-19T10:58:55.323Z,4.50
2018-01-19T11:01:22.814Z,4.50
2018-01-19T11:03:50.261Z,4.60
2018-01-19T11:06:17.722Z,4.60
2018-01-19T11:08:45.161Z,4.60
2018-01-19T11:11:13.391Z,4.60
2018-01-19T11:13:40.833Z,4.50
2018-01-19T11:16:08.285Z,4.50
2018-01-19T11:18:35.756Z,4.50
2018-01-19T11:21:03.207Z,4.60
2018-01-19T11:23:36.479Z,4.60
2018-01-19T11:26:05.863Z,4.80
2018-01-19T11:28:33.420Z,4.80
2018-01-19T11:31:00.872Z,4.80
2018-01-19T11:33:28.330Z,4.80
2018-01-19T11:35:55.794Z,4.90
2018-01-19T11:38:23.265Z,4.80
2018-01-19T11:40:50.745Z,4.80
2018-01-19T11:43:18.194Z,4.80
2018-01-19T11:45:45.640Z,4.90
2018-01-19T11:48:13.194Z,5.00
2018-01-19T11:50:40.636Z,5.10
2018-01-19T11:53:08.103Z,5.20
2018-01-19T11:55:35.565Z,5.10
2018-01-19T11:58:03.030Z,5.00
2018-01-19T12:00:30.483Z,4.80
2018-01-19T12:02:58.726Z,4.70
2018-01-19T12:05:26.193Z,4.70
2018-01-19T12:07:53.660Z,4.80
2018-01-19T12:10:21.110Z,4.90
2018-01-19T12:12:48.682Z,4.90
2018-01-19T12:15:16.185Z,5.00
2018-01-19T12:17:43.607Z,4.90
2018-01-19T12:20:11.078Z,4.80
2018-01-19T12:22:38.502Z,4.70
2018-01-19T12:25:05.954Z,4.70
2018-01-19T12:27:33.412Z,4.70
2018-01-19T12:30:00.847Z,4.60
2018-01-19T12:32:29.049Z,4.70
2018-01-19T12:34:56.563Z,4.60
2018-01-19T12:37:24.030Z,4.70
2018-01-19T12:39:51.510Z,4.70
2018-01-19T12:42:19.715Z,4.80
2018-01-19T12:44:47.174Z,4.80
2018-01-19T12:47:14.628Z,4.80
2018-01-19T12:49:42.076Z,4.80
2018-01-19T12:52:10.308Z,4.80
2018-01-19T12:54:37.811Z,4.80
2018-01-19T12:57:05.238Z,4.80
2018-01-19T12:59:32.702Z,4.80
2018-01-19T13:02:00.163Z,4.80
2018-01-19T13:04:28.381Z,4.90
2018-01-19T13:06:56.628Z,4.90
2018-01-19T13:09:24.077Z,4.90
2018-01-19T13:11:51.537Z,5.00
2018-01-19T13:14:18.986Z,5.10
2018-01-19T13:16:46.429Z,5.00
2018-01-19T13:19:13.888Z,5.00
2018-01-19T13:21:42.086Z,5.10
2018-01-19T13:24:09.561Z,5.10
2018-01-19T13:26:37.010Z,5.10
2018-01-19T13:29:04.472Z,5.10
2018-01-19T13:31:31.909Z,5.10
2018-01-19T13:34:00.126Z,5.20
2018-01-19T13:36:27.586Z,5.20
2018-01-19T13:38:55.074Z,5.10
2018-01-19T13:41:22.531Z,5.10
2018-01-19T13:43:49.991Z,5.10
2018-01-19T13:46:17.447Z,5.00
2018-01-19T13:48:44.909Z,5.00
2018-01-19T13:51:12.396Z,5.00
2018-01-19T13:53:40.638Z,5.10
2018-01-19T13:56:08.073Z,5.00
2018-01-19T13:58:36.307Z,5.10
2018-01-19T14:01:03.759Z,5.00
2018-01-19T14:03:31.209Z,5.10
2018-01-19T14:05:58.646Z,5.00
2018-01-19T14:08:26.880Z,4.90
2018-01-19T14:10:54.346Z,5.00
2018-01-19T14:13:21.823Z,5.00
2018-01-19T14:15:49.256Z,5.00
2018-01-19T14:18:16.733Z,4.90
2018-01-19T14:20:44.178Z,4.90
2018-01-19T14:23:11.625Z,5.00
2018-01-19T14:25:39.071Z,5.00
2018-01-19T14:28:06.520Z,5.00
2018-01-19T14:30:34.726Z,5.00
2018-01-19T14:33:02.168Z,4.90
2018-01-19T14:35:30.391Z,4.90
2018-01-19T14:37:57.828Z,4.80
2018-01-19T14:40:25.344Z,4.90
2018-01-19T14:42:52.794Z,4.90
2018-01-19T14:45:20.249Z,4.80
2018-01-19T14:47:47.726Z,4.90
2018-01-19T14:50:15.210Z,4.90
2018-01-19T14:52:42.669Z,4.90
2018-01-19T14:55:10.130Z,4.80
2018-01-19T14:57:37.606Z,4.80
2018-01-19T15:00:05.848Z,4.70
2018-01-19T15:02:33.313Z,4.70
2018-01-19T15:05:00.764Z,4.70
2018-01-19T15:07:28.211Z,4.70
2018-01-19T15:09:56.449Z,4.80
2018-01-19T15:12:23.911Z,4.80
2018-01-19T15:14:51.375Z,4.80
2018-01-19T15:17:18.827Z,4.80
2018-01-19T15:19:46.275Z,4.80
2018-01-19T15:22:13.750Z,4.80
2018-01-19T15:24:41.311Z,4.80
2018-01-19T15:27:08.810Z,4.70
2018-01-19T15:29:36.241Z,4.70
2018-01-19T15:32:03.685Z,4.70
2018-01-19T15:34:31.177Z,4.70
2018-01-19T15:36:58.625Z,4.60
2018-01-19T15:39:26.081Z,4.60
2018-01-19T15:41:53.531Z,4.60
2018-01-19T15:44:20.974Z,4.60
2018-01-19T15:46:48.411Z,4.50
2018-01-19T15:49:16.635Z,4.50
2018-01-19T15:51:44.076Z,4.50
2018-01-19T15:54:11.541Z,4.50
2018-01-19T15:56:38.995Z,4.50
2018-01-19T15:59:06.436Z,4.40
2018-01-19T16:01:34.715Z,4.40
2018-01-19T16:04:02.949Z,4.40
2018-01-19T16:06:30.383Z,4.40
2018-01-19T16:08:57.843Z,4.40
2018-01-19T16:11:25.288Z,4.40
2018-01-19T16:13:53.503Z,4.30
2018-01-19T16:16:20.953Z,4.30
2018-01-19T16:18:48.415Z,4.30
2018-01-19T16:21:15.839Z,4.30
2018-01-19T16:23:43.287Z,4.30
2018-01-19T16:26:10.744Z,4.30
2018-01-19T16:28:38.188Z,4.30
2018-01-19T16:31:05.644Z,4.30
2018-01-19T16:33:33.102Z,4.30
2018-01-19T16:36:00.533Z,4.20
2018-01-19T16:38:28.001Z,4.30
2018-01-19T16:40:55.454Z,4.30
2018-01-19T16:43:22.903Z,4.30
2018-01-19T16:45:51.138Z,4.20
2018-01-19T16:48:18.598Z,4.30
2018-01-19T16:50:46.038Z,4.20
2018-01-19T16:53:13.500Z,4.30
2018-01-19T16:55:40.970Z,4.30
2018-01-19T16:58:08.412Z,4.30
2018-01-19T17:00:36.642Z,4.20
2018-01-19T17:03:04.081Z,4.20
2018-01-19T17:05:31.517Z,4.20
2018-01-19T17:07:58.964Z,4.20
2018-01-19T17:10:27.197Z,4.20
2018-01-19T17:12:54.730Z,4.20
2018-01-19T17:15:23.017Z,4.20
2018-01-19T17:17:50.482Z,4.20
2018-01-19T17:20:17.930Z,4.20
2018-01-19T17:22:45.361Z,4.20
2018-01-19T17:25:12.810Z,4.10
2018-01-19T17:27:40.276Z,4.10
2018-01-19T17:30:07.739Z,4.10
2018-01-19T17:32:35.184Z,4.10
2018-01-19T17:35:02.644Z,4.10
2018-01-19T17:37:30.103Z,4.10
2018-01-19T17:39:57.556Z,4.10
2018-01-19T17:42:25.096Z,4.10
2018-01-19T17:44:52.583Z,4.10
2018-01-19T17:47:20.036Z,4.10
2018-01-19T17:49:47.485Z,4.00
2018-01-19T17:52:14.962Z,4.00
2018-01-19T17:54:42.434Z,4.10
2018-01-19T17:57:09.880Z,4.10
2018-01-19T17:59:37.329Z,4.10
2018-01-19T18:02:05.525Z,4.00
2018-01-19T18:04:33.116Z,4.00
2018-01-19T18:07:00.665Z,4.00
2018-01-19T18:09:28.141Z,4.10
2018-01-19T18:11:55.601Z,4.10
2018-01-19T18:14:23.148Z,4.00
2018-01-19T18:16:50.594Z,4.00
2018-01-19T18:19:18.831Z,4.00
2018-01-19T18:21:46.289Z,4.00
2018-01-19T18:24:13.747Z,4.00
2018-01-19T18:26:41.219Z,4.10
2018-01-19T18:29:08.673Z,4.10
2018-01-19T18:31:36.128Z,4.10
2018-01-19T18:34:03.713Z,4.00
2018-01-19T18:36:31.160Z,3.90
2018-01-19T18:38:58.595Z,3.90
2018-01-19T18:41:26.039Z,3.90
2018-01-19T18:43:54.267Z,3.90
2018-01-19T18:46:21.738Z,3.90
2018-01-19T18:48:49.221Z,4.00
2018-01-19T18:51:16.674Z,4.00
2018-01-19T18:53:44.127Z,4.00
2018-01-19T18:56:11.604Z,3.90
2018-01-19T18:58:39.062Z,3.90
2018-01-19T19:01:06.515Z,3.80
2018-01-19T19:03:33.998Z,3.80
2018-01-19T19:06:01.436Z,3.80
2018-01-19T19:08:28.872Z,3.70
2018-01-19T19:10:56.345Z,3.70
2018-01-19T19:13:23.799Z,3.70
2018-01-19T19:15:51.231Z,3.60
2018-01-19T19:18:19.468Z,3.60
2018-01-19T19:20:46.928Z,3.60
2018-01-19T19:23:15.004Z,3.60
2018-01-19T19:25:42.455Z,3.50
2018-01-19T19:28:09.956Z,3.50
2018-01-19T19:30:37.370Z,3.50
2018-01-19T19:33:04.806Z,3.50
2018-01-19T19:35:33.022Z,3.50
2018-01-19T19:38:00.483Z,3.60
2018-01-19T19:40:27.948Z,3.50
2018-01-19T19:42:55.401Z,3.60
2018-01-19T19:45:22.829Z,3.60
2018-01-19T19:47:51.040Z,3.70
2018-01-19T19:50:18.480Z,3.80
2018-01-19T19:52:46.687Z,3.90
2018-01-19T19:55:14.129Z,3.90
2018-01-19T19:57:41.568Z,4.00
2018-01-19T20:00:09.786Z,3.70
2018-01-19T20:02:37.230Z,3.70
2018-01-19T20:05:05.438Z,3.70
2018-01-19T20:07:32.996Z,3.70
2018-01-19T20:10:00.440Z,3.70
2018-01-19T20:12:27.882Z,3.70
2018-01-19T20:14:56.092Z,3.70
2018-01-19T20:17:23.555Z,3.70
2018-01-19T20:19:50.987Z,3.60
2018-01-19T20:22:19.214Z,3.70
2018-01-19T20:24:46.680Z,3.60
2018-01-19T20:27:14.102Z,3.70
2018-01-19T20:29:41.552Z,3.70
2018-01-19T20:32:09.768Z,3.70
2018-01-19T20:34:37.202Z,3.70
2018-01-19T20:37:05.407Z,3.70
2018-01-19T20:39:32.887Z,3.70
2018-01-19T20:42:00.377Z,3.80
2018-01-19T20:44:27.827Z,3.70
2018-01-19T20:46:55.279Z,3.70
2018-01-19T20:49:22.784Z,3.70
2018-01-19T20:51:50.224Z,3.80
2018-01-19T20:54:17.666Z,3.80
2018-01-19T20:56:45.234Z,3.70
2018-01-19T20:59:12.574Z,3.70
2018-01-19T21:01:40.072Z,3.80
2018-01-19T21:04:07.523Z,3.90
2018-01-19T21:06:34.974Z,4.10
2018-01-19T21:09:02.417Z,4.10
2018-01-19T21:11:29.855Z,4.10
2018-01-19T21:13:58.063Z,3.90
2018-01-19T21:16:25.500Z,3.90
2018-01-19T21:18:53.731Z,3.80
2018-01-19T21:21:21.174Z,3.80
2018-01-19T21:23:48.612Z,3.70
2018-01-19T21:26:16.090Z,3.70
2018-01-19T21:28:43.568Z,3.70
2018-01-19T21:31:11.029Z,3.70
2018-01-19T21:33:38.462Z,3.60
2018-01-19T21:36:05.943Z,3.60
2018-01-19T21:38:33.394Z,3.60
2018-01-19T21:41:00.964Z,3.60
2018-01-19T21:43:28.413Z,3.60
2018-01-19T21:45:56.616Z,3.60
2018-01-19T21:48:24.079Z,3.60
2018-01-19T21:50:51.539Z,3.50
2018-01-19T21:53:18.985Z,3.50
2018-01-19T21:55:47.187Z,3.40
2018-01-19T21:58:14.643Z,3.40
2018-01-19T22:00:42.079Z,3.50
2018-01-19T22:03:10.300Z,3.50
2018-01-19T22:08:32.133Z,3.50
2018-01-19T22:10:59.722Z,3.50
2018-01-19T22:13:27.207Z,3.30
2018-01-19T22:15:54.662Z,3.20
2018-01-19T22:18:25.931Z,3.10
2018-01-19T22:20:53.367Z,3.10
2018-01-19T22:23:20.814Z,3.10
2018-01-19T22:25:48.269Z,3.10
2018-01-19T22:28:15.731Z,3.10
2018-01-19T22:30:43.172Z,3.10
2018-01-19T22:33:10.628Z,3.10
2018-01-19T22:35:38.087Z,3.10
2018-01-19T22:38:06.270Z,3.10
2018-01-19T22:40:33.730Z,3.10
2018-01-19T22:43:01.175Z,3.00
2018-01-19T22:45:29.415Z,3.00
2018-01-19T22:47:56.879Z,3.00
2018-01-19T22:50:24.343Z,2.90
2018-01-19T22:52:51.830Z,2.90
2018-01-19T22:55:19.287Z,3.00
2018-01-19T22:57:46.726Z,3.10
2018-01-19T23:00:20.116Z,3.10
2018-01-19T23:02:47.575Z,3.10
2018-01-19T23:05:15.024Z,3.10
